createdAt,value
2018-11-22T00:00:00.786Z,83.75
2018-11-22T00:02:27.621Z,83.55
2018-11-22T00:04:54.458Z,84.34
2018-11-22T00:07:21.296Z,83.94
2018-11-22T00:09:48.131Z,84.43
2018-11-22T00:12:14.968Z,84.84
2018-11-22T00:14:41.888Z,84.39
2018-11-22T00:17:08.780Z,83.89
2018-11-22T00:19:35.615Z,83.96
2018-11-22T00:22:02.443Z,82.95
2018-11-22T00:24:29.272Z,84.08
2018-11-22T00:26:56.112Z,83.82
2018-11-22T00:29:22.951Z,84.54
2018-11-22T00:31:49.788Z,84.84
2018-11-22T00:34:16.620Z,84.61
2018-11-22T00:36:43.456Z,85.05
2018-11-22T00:39:11.251Z,84.91
2018-11-22T00:41:38.091Z,84.29
2018-11-22T00:44:04.964Z,84.44
2018-11-22T00:46:31.803Z,84.78
2018-11-22T00:48:58.649Z,84.99
2018-11-22T00:51:25.484Z,85.08
2018-11-22T00:53:52.308Z,85.05
2018-11-22T00:56:19.148Z,84.62
2018-11-22T00:58:45.988Z,84.66
2018-11-22T01:01:12.843Z,85.20
2018-11-22T01:03:39.680Z,85.16
2018-11-22T01:06:06.515Z,85.04
2018-11-22T01:08:33.356Z,85.28
2018-11-22T01:11:00.191Z,85.30
2018-11-22T01:13:27.027Z,84.84
2018-11-22T01:15:53.860Z,84.79
2018-11-22T01:18:20.702Z,84.92
2018-11-22T01:20:47.536Z,84.46
2018-11-22T01:23:14.383Z,85.07
2018-11-22T01:25:41.216Z,83.11
2018-11-22T01:28:08.048Z,83.90
2018-11-22T01:30:34.876Z,84.37
2018-11-22T01:33:01.735Z,84.60
2018-11-22T01:35:28.557Z,84.55
2018-11-22T01:37:55.385Z,83.60
2018-11-22T01:40:23.207Z,83.23
2018-11-22T01:42:50.043Z,84.13
2018-11-22T01:45:19.360Z,85.00
2018-11-22T01:47:46.188Z,85.19
2018-11-22T01:50:14.166Z,85.24
2018-11-22T01:52:41.312Z,85.90
2018-11-22T01:55:09.908Z,85.69
2018-11-22T01:57:36.812Z,85.00
2018-11-22T02:00:05.780Z,85.01
2018-11-22T02:02:32.608Z,85.65
2018-11-22T02:04:59.449Z,86.07
2018-11-22T02:07:26.299Z,84.85
2018-11-22T02:09:53.124Z,86.29
2018-11-22T02:12:19.979Z,85.67
2018-11-22T02:14:46.819Z,85.10
2018-11-22T02:17:13.657Z,85.88
2018-11-22T02:19:40.522Z,85.73
2018-11-22T02:22:07.356Z,85.77
2018-11-22T02:24:34.211Z,86.35
2018-11-22T02:27:01.051Z,85.66
2018-11-22T02:29:27.892Z,85.56
2018-11-22T02:31:54.734Z,85.72
2018-11-22T02:34:21.564Z,86.19
2018-11-22T02:36:48.409Z,85.44
2018-11-22T02:39:15.256Z,85.49
2018-11-22T02:41:42.101Z,85.58
2018-11-22T02:44:08.940Z,85.33
2018-11-22T02:46:35.780Z,85.12
2018-11-22T02:49:02.716Z,85.93
2018-11-22T02:51:29.557Z,85.28
2018-11-22T02:53:56.399Z,85.64
2018-11-22T02:56:23.248Z,84.55
2018-11-22T02:58:50.083Z,85.22
2018-11-22T03:01:16.924Z,84.30
2018-11-22T03:03:43.757Z,84.25
2018-11-22T03:06:10.596Z,83.67
2018-11-22T03:08:37.426Z,84.89
2018-11-22T03:11:04.987Z,84.75
2018-11-22T03:13:31.823Z,84.61
2018-11-22T03:15:58.668Z,84.15
2018-11-22T03:18:25.497Z,83.27
2018-11-22T03:20:52.340Z,83.28
2018-11-22T03:23:19.184Z,83.75
2018-11-22T03:25:46.016Z,84.51
2018-11-22T03:28:12.856Z,83.73
2018-11-22T03:30:39.692Z,84.30
2018-11-22T03:33:06.535Z,84.61
2018-11-22T03:35:33.373Z,84.83
2018-11-22T03:38:00.233Z,84.42
2018-11-22T03:40:27.232Z,83.76
2018-11-22T03:42:54.157Z,83.98
2018-11-22T03:45:21.492Z,84.25
2018-11-22T03:47:48.332Z,84.60
2018-11-22T03:50:17.128Z,84.69
2018-11-22T03:52:44.700Z,84.35
2018-11-22T03:55:12.784Z,84.11
2018-11-22T03:57:39.897Z,84.13
2018-11-22T04:00:08.748Z,84.02
2018-11-22T04:02:35.580Z,84.70
2018-11-22T04:05:02.446Z,84.23
2018-11-22T04:07:29.277Z,84.33
2018-11-22T04:09:56.131Z,83.84
2018-11-22T04:12:22.973Z,84.03
2018-11-22T04:14:49.808Z,83.33
2018-11-22T04:17:16.644Z,83.98
2018-11-22T04:19:43.484Z,83.13
2018-11-22T04:22:10.324Z,83.54
2018-11-22T04:24:37.165Z,84.06
2018-11-22T04:27:04.318Z,84.00
2018-11-22T04:29:31.152Z,83.01
2018-11-22T04:31:57.988Z,83.66
2018-11-22T04:34:24.816Z,82.37
2018-11-22T04:36:51.657Z,83.05
2018-11-22T04:39:18.503Z,83.49
2018-11-22T04:41:45.416Z,82.78
2018-11-22T04:44:12.275Z,83.96
2018-11-22T04:46:39.114Z,83.24
2018-11-22T04:49:05.940Z,82.84
2018-11-22T04:51:32.771Z,83.35
2018-11-22T04:53:59.755Z,83.49
2018-11-22T04:56:26.596Z,83.27
2018-11-22T04:58:53.571Z,83.44
2018-11-22T05:01:20.413Z,83.39
2018-11-22T05:03:47.240Z,83.55
2018-11-22T05:06:14.088Z,84.20
2018-11-22T05:08:40.921Z,83.40
2018-11-22T05:11:07.777Z,83.54
2018-11-22T05:13:34.610Z,82.21
2018-11-22T05:16:01.449Z,83.11
2018-11-22T05:18:28.285Z,83.39
2018-11-22T05:20:55.128Z,83.27
2018-11-22T05:23:22.051Z,83.84
2018-11-22T05:25:48.867Z,83.55
2018-11-22T05:28:15.703Z,83.78
2018-11-22T05:30:42.560Z,83.81
2018-11-22T05:33:09.401Z,83.95
2018-11-22T05:35:36.225Z,84.00
2018-11-22T05:38:03.072Z,83.91
2018-11-22T05:40:30.788Z,84.04
2018-11-22T05:42:57.097Z,84.32
2018-11-22T05:45:25.269Z,84.69
2018-11-22T05:47:52.101Z,84.62
2018-11-22T05:50:20.493Z,83.87
2018-11-22T05:52:47.735Z,84.08
2018-11-22T05:55:15.104Z,84.37
2018-11-22T05:57:41.940Z,83.96
2018-11-22T06:00:12.559Z,84.09
2018-11-22T06:02:39.412Z,84.23
2018-11-22T06:05:06.891Z,84.68
2018-11-22T06:07:33.765Z,84.53
2018-11-22T06:10:00.684Z,84.58
2018-11-22T06:12:27.553Z,84.07
2018-11-22T06:14:54.423Z,83.83
2018-11-22T06:17:21.276Z,83.55
2018-11-22T06:19:48.148Z,83.79
2018-11-22T06:22:15.021Z,83.50
2018-11-22T06:24:41.887Z,83.13
2018-11-22T06:27:08.760Z,83.43
2018-11-22T06:29:35.599Z,83.77
2018-11-22T06:32:02.457Z,84.40
2018-11-22T06:34:29.365Z,84.45
2018-11-22T06:36:56.237Z,84.04
2018-11-22T06:39:23.112Z,83.29
2018-11-22T06:41:49.992Z,83.37
2018-11-22T06:44:16.853Z,83.00
2018-11-22T06:46:43.737Z,83.07
2018-11-22T06:49:10.605Z,83.23
2018-11-22T06:51:37.493Z,83.25
2018-11-22T06:54:04.688Z,83.60
2018-11-22T06:56:31.535Z,83.93
2018-11-22T06:58:58.402Z,84.17
2018-11-22T07:01:25.259Z,84.26
2018-11-22T07:03:52.124Z,84.32
2018-11-22T07:06:19.076Z,84.36
2018-11-22T07:08:45.976Z,84.42
2018-11-22T07:11:12.830Z,84.34
2018-11-22T07:13:39.699Z,84.41
2018-11-22T07:16:06.560Z,84.09
2018-11-22T07:18:33.428Z,83.97
2018-11-22T07:21:00.300Z,83.71
2018-11-22T07:23:27.164Z,83.38
2018-11-22T07:25:54.078Z,83.82
2018-11-22T07:28:20.939Z,83.50
2018-11-22T07:30:47.809Z,83.50
2018-11-22T07:33:14.685Z,83.12
2018-11-22T07:35:41.562Z,83.36
2018-11-22T07:38:08.940Z,82.42
2018-11-22T07:40:35.984Z,83.03
2018-11-22T07:43:03.280Z,82.56
2018-11-22T07:45:32.017Z,83.05
2018-11-22T07:47:59.889Z,82.80
2018-11-22T07:50:26.758Z,83.08
2018-11-22T07:52:56.039Z,82.70
2018-11-22T07:55:21.136Z,82.90
2018-11-22T07:57:48.024Z,82.62
2018-11-22T08:00:18.424Z,81.94
2018-11-22T08:02:46.265Z,81.62
2018-11-22T08:05:13.795Z,81.66
2018-11-22T08:07:41.319Z,82.04
2018-11-22T08:10:09.781Z,82.23
2018-11-22T08:12:36.699Z,82.01
2018-11-22T08:15:04.109Z,81.87
2018-11-22T08:17:30.975Z,81.80
2018-11-22T08:19:57.809Z,81.77
2018-11-22T08:22:24.710Z,82.27
2018-11-22T08:24:51.502Z,82.14
2018-11-22T08:27:18.444Z,82.01
2018-11-22T08:29:45.308Z,82.45
2018-11-22T08:32:12.157Z,81.58
2018-11-22T08:34:39.065Z,82.44
2018-11-22T08:37:05.950Z,82.38
2018-11-22T08:39:32.825Z,82.73
2018-11-22T08:41:59.684Z,82.07
2018-11-22T08:44:26.612Z,81.56
2018-11-22T08:46:53.484Z,81.52
2018-11-22T08:49:20.363Z,81.20
2018-11-22T08:51:47.232Z,80.87
2018-11-22T08:54:14.181Z,79.76
2018-11-22T08:56:41.038Z,80.00
2018-11-22T08:59:07.941Z,79.63
2018-11-22T09:01:34.834Z,79.49
2018-11-22T09:04:01.733Z,78.98
2018-11-22T09:06:28.609Z,79.10
2018-11-22T09:08:55.720Z,79.40
2018-11-22T09:11:22.589Z,78.89
2018-11-22T09:13:49.452Z,78.54
2018-11-22T09:16:16.327Z,78.81
2018-11-22T09:18:43.184Z,78.62
2018-11-22T09:21:10.067Z,78.84
2018-11-22T09:23:38.525Z,78.26
2018-11-22T09:26:04.082Z,78.46
2018-11-22T09:28:30.964Z,77.52
2018-11-22T09:30:57.845Z,77.49
2018-11-22T09:33:24.714Z,76.90
2018-11-22T09:35:51.583Z,76.06
2018-11-22T09:38:18.462Z,75.61
2018-11-22T09:40:45.338Z,75.74
2018-11-22T09:43:12.208Z,75.64
2018-11-22T09:45:39.897Z,74.57
2018-11-22T09:48:06.764Z,74.03
2018-11-22T09:50:33.627Z,73.77
2018-11-22T09:53:01.765Z,73.59
2018-11-22T09:55:29.209Z,74.76
2018-11-22T09:57:56.073Z,74.33
2018-11-22T10:00:23.322Z,74.17
2018-11-22T10:02:50.233Z,73.79
2018-11-22T10:05:18.524Z,73.50
2018-11-22T10:07:45.339Z,72.63
2018-11-22T10:10:13.847Z,73.92
2018-11-22T10:12:40.739Z,74.31
2018-11-22T10:15:09.166Z,74.32
2018-11-22T10:17:36.155Z,74.13
2018-11-22T10:20:03.324Z,73.47
2018-11-22T10:22:30.294Z,73.96
2018-11-22T10:24:57.250Z,73.96
2018-11-22T10:27:24.115Z,73.41
2018-11-22T10:29:51.006Z,72.48
2018-11-22T10:32:17.878Z,72.59
2018-11-22T10:34:44.755Z,72.89
2018-11-22T10:37:11.631Z,71.94
2018-11-22T10:39:38.508Z,72.50
2018-11-22T10:42:05.877Z,72.77
2018-11-22T10:44:32.757Z,72.89
2018-11-22T10:46:59.647Z,73.29
2018-11-22T10:49:26.524Z,72.70
2018-11-22T10:51:53.400Z,71.95
2018-11-22T10:54:20.280Z,71.84
2018-11-22T10:56:47.180Z,72.57
2018-11-22T10:59:14.073Z,71.46
2018-11-22T11:01:46.655Z,71.17
2018-11-22T11:04:19.307Z,72.54
2018-11-22T11:06:50.783Z,72.71
2018-11-22T11:09:17.752Z,73.25
2018-11-22T11:11:44.616Z,72.92
2018-11-22T11:14:11.472Z,72.21
2018-11-22T11:16:38.329Z,73.57
2018-11-22T11:19:05.280Z,74.07
2018-11-22T11:21:32.109Z,73.41
2018-11-22T11:23:58.991Z,74.18
2018-11-22T11:26:25.889Z,73.10
2018-11-22T11:28:52.732Z,72.22
2018-11-22T11:31:19.572Z,71.44
2018-11-22T11:33:46.414Z,71.93
2018-11-22T11:36:17.824Z,70.78
2018-11-22T11:38:40.199Z,70.22
2018-11-22T11:41:07.055Z,69.61
2018-11-22T11:43:33.960Z,70.33
2018-11-22T11:46:00.811Z,69.62
2018-11-22T11:48:27.698Z,69.93
2018-11-22T11:50:54.584Z,69.86
2018-11-22T11:53:25.164Z,70.03
2018-11-22T11:55:48.356Z,69.14
2018-11-22T11:58:15.236Z,69.86
2018-11-22T12:00:43.471Z,69.81
2018-11-22T12:03:10.399Z,69.96
2018-11-22T12:05:37.297Z,69.96
2018-11-22T12:08:04.268Z,69.78
2018-11-22T12:10:31.131Z,68.54
2018-11-22T12:12:58.000Z,68.10
2018-11-22T12:15:25.131Z,69.18
2018-11-22T12:17:51.969Z,69.38
2018-11-22T12:20:19.115Z,69.83
2018-11-22T12:22:50.179Z,69.82
2018-11-22T12:25:18.439Z,69.49
2018-11-22T12:27:46.507Z,68.95
2018-11-22T12:30:15.696Z,69.79
2018-11-22T12:32:58.008Z,68.87
2018-11-22T12:35:30.588Z,68.57
2018-11-22T12:38:03.152Z,69.28
2018-11-22T12:40:30.182Z,69.00
2018-11-22T12:42:57.080Z,69.11
2018-11-22T12:45:24.423Z,68.65
2018-11-22T12:47:51.379Z,69.02
2018-11-22T12:50:18.319Z,69.53
2018-11-22T12:52:45.172Z,68.63
2018-11-22T12:55:12.051Z,68.87
2018-11-22T12:57:38.903Z,68.62
2018-11-22T13:00:11.243Z,68.92
2018-11-22T13:02:38.288Z,68.23
2018-11-22T13:05:06.603Z,68.79
2018-11-22T13:07:33.488Z,69.58
2018-11-22T13:10:00.384Z,69.61
2018-11-22T13:12:27.231Z,68.12
2018-11-22T13:14:54.095Z,69.12
2018-11-22T13:17:20.936Z,68.53
2018-11-22T13:19:47.804Z,68.24
2018-11-22T13:22:14.664Z,68.97
2018-11-22T13:24:41.530Z,67.93
2018-11-22T13:27:08.380Z,68.59
2018-11-22T13:29:35.204Z,67.95
2018-11-22T13:32:02.053Z,67.23
2018-11-22T13:34:28.933Z,67.82
2018-11-22T13:36:55.776Z,68.24
2018-11-22T13:39:22.603Z,68.25
2018-11-22T13:41:49.575Z,68.35
2018-11-22T13:44:16.482Z,67.51
2018-11-22T13:46:43.355Z,68.42
2018-11-22T13:49:10.260Z,67.56
2018-11-22T13:51:37.157Z,68.47
2018-11-22T13:54:04.375Z,68.34
2018-11-22T13:56:31.239Z,68.02
2018-11-22T13:58:58.075Z,67.41
2018-11-22T14:01:24.931Z,68.98
2018-11-22T14:03:51.782Z,68.43
2018-11-22T14:06:18.802Z,68.24
2018-11-22T14:08:45.647Z,68.27
2018-11-22T14:11:14.060Z,68.21
2018-11-22T14:13:39.444Z,68.60
2018-11-22T14:16:06.291Z,68.81
2018-11-22T14:18:33.144Z,68.48
2018-11-22T14:20:59.988Z,68.28
2018-11-22T14:23:26.831Z,68.30
2018-11-22T14:25:53.818Z,69.39
2018-11-22T14:28:20.656Z,70.10
2018-11-22T14:30:48.381Z,69.04
2018-11-22T14:33:15.501Z,68.88
2018-11-22T14:35:42.430Z,69.45
2018-11-22T14:38:09.505Z,69.51
2018-11-22T14:40:36.912Z,69.79
2018-11-22T14:43:03.935Z,70.15
2018-11-22T14:45:31.579Z,69.92
2018-11-22T14:47:59.844Z,70.74
2018-11-22T14:50:29.431Z,71.14
2018-11-22T14:53:01.533Z,71.21
2018-11-22T14:55:28.416Z,72.26
2018-11-22T14:57:55.305Z,72.24
2018-11-22T15:00:22.184Z,71.55
2018-11-22T15:02:49.060Z,72.14
2018-11-22T15:05:16.255Z,72.30
2018-11-22T15:07:43.601Z,73.20
2018-11-22T15:10:14.741Z,74.08
2018-11-22T15:12:42.721Z,74.17
2018-11-22T15:15:12.649Z,74.83
2018-11-22T15:17:39.895Z,75.26
2018-11-22T15:20:08.257Z,75.24
2018-11-22T15:22:35.147Z,75.20
2018-11-22T15:25:02.091Z,76.22
2018-11-22T15:27:28.966Z,76.17
2018-11-22T15:29:55.843Z,76.67
2018-11-22T15:32:22.721Z,76.75
2018-11-22T15:34:49.643Z,76.96
2018-11-22T15:37:16.521Z,76.91
2018-11-22T15:39:43.379Z,77.07
2018-11-22T15:42:10.256Z,76.93
2018-11-22T15:44:37.141Z,77.54
2018-11-22T15:47:04.564Z,77.83
2018-11-22T15:49:31.447Z,77.12
2018-11-22T15:51:58.316Z,77.18
2018-11-22T15:54:25.245Z,77.49
2018-11-22T15:56:52.135Z,77.34
2018-11-22T15:59:19.036Z,77.68
2018-11-22T16:01:46.043Z,78.08
2018-11-22T16:04:12.924Z,78.08
2018-11-22T16:06:39.788Z,78.09
2018-11-22T16:09:07.969Z,78.47
2018-11-22T16:11:34.847Z,78.45
2018-11-22T16:14:01.722Z,78.41
2018-11-22T16:16:28.604Z,78.87
2018-11-22T16:18:55.472Z,79.39
2018-11-22T16:21:22.380Z,79.31
2018-11-22T16:23:49.256Z,79.76
2018-11-22T16:26:16.140Z,80.19
2018-11-22T16:28:43.041Z,80.30
2018-11-22T16:31:09.948Z,80.62
2018-11-22T16:33:36.825Z,80.96
2018-11-22T16:36:03.770Z,81.00
2018-11-22T16:38:30.628Z,81.23
2018-11-22T16:40:57.562Z,81.32
2018-11-22T16:43:24.412Z,81.33
2018-11-22T16:45:51.308Z,81.10
2018-11-22T16:48:18.207Z,81.76
2018-11-22T16:50:45.152Z,82.01
2018-11-22T16:53:12.012Z,81.47
2018-11-22T16:55:38.868Z,81.93
2018-11-22T16:58:06.239Z,81.16
2018-11-22T17:00:35.357Z,82.26
2018-11-22T17:03:04.638Z,82.38
2018-11-22T17:05:31.900Z,82.79
2018-11-22T17:07:59.551Z,82.89
2018-11-22T17:10:27.550Z,82.63
2018-11-22T17:12:55.605Z,82.85
2018-11-22T17:15:24.189Z,84.13
2018-11-22T17:17:51.554Z,84.47
2018-11-22T17:20:19.407Z,84.28
2018-11-22T17:22:47.064Z,83.98
2018-11-22T17:25:16.389Z,84.85
2018-11-22T17:27:44.040Z,85.10
2018-11-22T17:30:13.211Z,86.24
2018-11-22T17:32:40.531Z,86.13
2018-11-22T17:35:08.868Z,86.84
2018-11-22T17:37:35.731Z,87.69
2018-11-22T17:40:03.096Z,87.65
2018-11-22T17:42:29.945Z,88.23
2018-11-22T17:44:56.917Z,88.23
2018-11-22T17:47:23.803Z,88.11
2018-11-22T17:49:50.680Z,88.84
2018-11-22T17:52:17.535Z,88.81
2018-11-22T17:54:44.384Z,88.83
2018-11-22T17:57:11.267Z,89.32
2018-11-22T17:59:38.207Z,88.64
2018-11-22T18:02:05.299Z,89.08
2018-11-22T18:04:32.184Z,89.46
2018-11-22T18:06:59.069Z,90.02
2018-11-22T18:09:25.949Z,89.51
2018-11-22T18:11:52.856Z,89.59
2018-11-22T18:14:19.703Z,89.32
2018-11-22T18:16:46.618Z,90.41
2018-11-22T18:19:13.534Z,89.85
2018-11-22T18:21:40.387Z,90.25
2018-11-22T18:24:07.223Z,89.75
2018-11-22T18:26:34.095Z,89.51
2018-11-22T18:29:00.932Z,90.48
2018-11-22T18:31:27.783Z,90.36
2018-11-22T18:33:54.707Z,90.06
2018-11-22T18:36:21.599Z,89.72
2018-11-22T18:38:48.456Z,90.12
2018-11-22T18:41:15.309Z,90.09
2018-11-22T18:43:42.204Z,89.37
2018-11-22T18:46:09.060Z,88.98
2018-11-22T18:48:35.921Z,89.62
2018-11-22T18:51:02.761Z,89.64
2018-11-22T18:53:29.596Z,89.56
2018-11-22T18:55:56.448Z,89.41
2018-11-22T18:58:23.275Z,88.78
2018-11-22T19:00:50.121Z,89.08
2018-11-22T19:03:18.191Z,88.67
2018-11-22T19:05:45.070Z,88.50
2018-11-22T19:08:11.966Z,88.39
2018-11-22T19:10:39.903Z,88.74
2018-11-22T19:13:07.756Z,88.64
2018-11-22T19:15:36.147Z,88.78
2018-11-22T19:18:03.438Z,88.60
2018-11-22T19:20:32.040Z,89.12
2018-11-22T19:22:59.847Z,88.84
2018-11-22T19:25:26.747Z,89.45
2018-11-22T19:27:55.339Z,89.29
2018-11-22T19:30:23.559Z,88.69
2018-11-22T19:32:51.406Z,88.71
2018-11-22T19:35:19.601Z,89.25
2018-11-22T19:37:46.790Z,88.98
2018-11-22T19:40:15.991Z,88.04
2018-11-22T19:42:44.004Z,87.52
2018-11-22T19:45:12.484Z,86.31
2018-11-22T19:47:39.470Z,86.48
2018-11-22T19:50:08.951Z,87.18
2018-11-22T19:52:35.831Z,86.50
2018-11-22T19:55:02.765Z,87.22
2018-11-22T19:57:29.719Z,86.35
2018-11-22T19:59:56.555Z,85.80
2018-11-22T20:02:23.399Z,87.27
2018-11-22T20:04:50.243Z,86.24
2018-11-22T20:07:17.103Z,86.94
2018-11-22T20:09:43.963Z,86.22
2018-11-22T20:12:10.815Z,86.74
2018-11-22T20:14:37.709Z,87.47
2018-11-22T20:17:04.624Z,88.37
2018-11-22T20:19:31.471Z,88.14
2018-11-22T20:21:58.331Z,87.45
2018-11-22T20:24:25.243Z,87.71
2018-11-22T20:26:52.096Z,86.67
2018-11-22T20:29:18.982Z,86.87
2018-11-22T20:31:46.412Z,87.73
2018-11-22T20:34:12.739Z,87.46
2018-11-22T20:36:39.667Z,87.42
2018-11-22T20:39:08.440Z,87.27
2018-11-22T20:41:35.284Z,88.22
2018-11-22T20:44:02.120Z,87.63
2018-11-22T20:46:28.959Z,89.28
2018-11-22T20:48:55.795Z,89.50
2018-11-22T20:51:22.635Z,89.60
2018-11-22T20:53:49.484Z,90.19
2018-11-22T20:56:16.332Z,90.68
2018-11-22T20:58:43.168Z,90.54
2018-11-22T21:01:10.003Z,91.36
2018-11-22T21:03:36.839Z,91.86
2018-11-22T21:06:04.163Z,91.21
2018-11-22T21:08:31.051Z,92.02
2018-11-22T21:10:57.967Z,91.25
2018-11-22T21:13:24.825Z,91.20
2018-11-22T21:15:51.666Z,91.20
2018-11-22T21:18:18.507Z,91.20
2018-11-22T21:20:45.343Z,91.63
2018-11-22T21:23:12.187Z,91.70
2018-11-22T21:25:39.092Z,90.87
2018-11-22T21:28:06.137Z,90.91
2018-11-22T21:30:34.303Z,91.25
2018-11-22T21:33:01.639Z,90.43
2018-11-22T21:35:28.609Z,90.39
2018-11-22T21:37:56.359Z,90.94
2018-11-22T21:40:23.871Z,90.85
2018-11-22T21:42:50.745Z,90.06
2018-11-22T21:45:19.031Z,90.68
2018-11-22T21:47:45.903Z,89.92
2018-11-22T21:50:13.866Z,89.74
2018-11-22T21:52:40.724Z,89.45
2018-11-22T21:55:09.298Z,89.33
2018-11-22T21:57:37.019Z,88.97
2018-11-22T22:00:05.760Z,89.02
2018-11-22T22:02:32.620Z,88.97
2018-11-22T22:04:59.473Z,87.75
2018-11-22T22:07:26.327Z,88.98
2018-11-22T22:09:53.691Z,89.10
2018-11-22T22:12:20.535Z,89.63
2018-11-22T22:14:47.374Z,88.43
2018-11-22T22:17:14.211Z,88.37
2018-11-22T22:19:41.064Z,88.96
2018-11-22T22:22:07.908Z,89.52
2018-11-22T22:24:34.727Z,88.88
2018-11-22T22:27:01.583Z,89.56
2018-11-22T22:29:28.429Z,88.61
2018-11-22T22:31:55.487Z,88.44
2018-11-22T22:34:22.331Z,88.44
2018-11-22T22:36:49.168Z,88.54
2018-11-22T22:39:16.000Z,89.04
2018-11-22T22:41:42.877Z,89.24
2018-11-22T22:44:09.743Z,89.39
2018-11-22T22:46:36.627Z,89.14
2018-11-22T22:49:03.515Z,88.97
2018-11-22T22:51:30.347Z,89.28
2018-11-22T22:53:57.211Z,89.43
2018-11-22T22:56:24.054Z,88.97
2018-11-22T22:58:50.903Z,88.21
2018-11-22T23:01:17.751Z,89.11
2018-11-22T23:03:44.584Z,88.50
2018-11-22T23:06:11.408Z,88.74
2018-11-22T23:08:38.258Z,89.77
2018-11-22T23:11:05.093Z,89.09
2018-11-22T23:13:31.939Z,88.62
2018-11-22T23:15:58.792Z,90.08
2018-11-22T23:18:25.634Z,90.12
2018-11-22T23:20:52.479Z,90.16
2018-11-22T23:23:19.329Z,90.01
2018-11-22T23:25:46.165Z,89.43
2018-11-22T23:28:12.999Z,89.15
2018-11-22T23:30:39.839Z,90.31
2018-11-22T23:33:07.771Z,89.84
2018-11-22T23:35:34.668Z,90.27
2018-11-22T23:38:01.539Z,90.86
2018-11-22T23:40:29.536Z,90.37
2018-11-22T23:42:56.387Z,90.18
2018-11-22T23:45:24.756Z,90.49
2018-11-22T23:47:51.607Z,89.71
2018-11-22T23:50:19.664Z,89.08
2018-11-22T23:52:47.649Z,90.50
2018-11-22T23:55:14.545Z,89.96
2018-11-22T23:57:41.423Z,88.36
